Time;durP1;ratioP1;P1;durP2;ratioP2;P2;SDS_P1;SDS_P2;PMS_P1;PMS_P2;Temp;Humidity;BMP_temperature;BMP_pressure;BME280_temperature;BME280_humidity;BME280_pressure;Samples;Min_cycle;Max_cycle;Signal;HPM_P1;HPM_P2
2022/07/04 00:02:15;;;;;;;4.33;2.43;;;22.40;54.80;;;21.68;51.04;97957.34;5059024;28;20828;-76
2022/07/04 00:04:42;;;;;;;2.53;2.33;;;22.50;54.80;;;21.57;51.30;97961.28;5052160;28;20977;-76
2022/07/04 00:07:10;;;;;;;2.63;2.43;;;22.30;54.80;;;21.43;51.66;97964.69;5056551;28;20871;-76
2022/07/04 00:09:38;;;;;;;3.93;3.07;;;22.10;55.00;;;21.41;51.90;97977.91;5057859;28;20489;-77
2022/07/04 00:12:06;;;;;;;2.83;2.63;;;22.10;55.20;;;21.27;51.98;97977.75;5054410;28;20475;-76
2022/07/04 00:14:35;;;;;;;3.00;2.80;;;22.00;55.20;;;21.06;52.83;97979.81;5077437;28;20846;-77
2022/07/04 00:17:02;;;;;;;3.00;2.33;;;21.80;55.50;;;21.37;52.56;97983.13;5066517;28;20842;-77
2022/07/04 00:19:29;;;;;;;2.97;2.77;;;22.00;55.90;;;21.34;52.74;97991.16;5052340;28;21299;-77
2022/07/04 00:21:57;;;;;;;2.50;2.30;;;21.90;55.90;;;21.25;53.05;97990.13;5067148;28;20532;-76
2022/07/04 00:24:24;;;;;;;4.33;3.13;;;21.90;56.00;;;21.37;52.81;97987.84;5068114;28;20459;-76
2022/07/04 00:26:53;;;;;;;5.53;2.60;;;21.90;56.10;;;21.35;53.28;97990.84;5067423;28;20452;-76
2022/07/04 00:29:20;;;;;;;2.97;2.70;;;21.90;56.10;;;21.41;52.76;97988.09;5058278;28;20508;-77
2022/07/04 00:31:48;;;;;;;2.60;2.23;;;22.00;56.20;;;21.44;52.62;97987.50;5051533;28;20458;-76
2022/07/04 00:34:15;;;;;;;2.60;2.40;;;22.10;56.20;;;21.44;52.95;97991.06;5052021;28;20461;-77
2022/07/04 00:36:43;;;;;;;3.57;2.40;;;22.00;56.10;;;21.40;52.53;97989.19;5056617;28;20455;-76
2022/07/04 00:39:10;;;;;;;3.73;2.30;;;22.10;56.10;;;21.30;53.03;97995.56;5052391;28;20544;-76
2022/07/04 00:41:38;;;;;;;2.93;2.73;;;21.90;56.00;;;21.31;52.59;97980.75;5074255;28;20947;-77
2022/07/04 00:44:09;;;;;;;3.23;2.70;;;22.00;56.00;;;21.23;52.90;97988.47;5069311;28;20820;-77
2022/07/04 00:46:36;;;;;;;3.70;2.53;;;21.90;56.00;;;21.12;52.97;97986.91;5057198;28;20451;-77
2022/07/04 00:49:05;;;;;;;2.83;2.40;;;21.80;56.20;;;21.02;53.47;97981.50;5051775;28;20813;-76
2022/07/04 00:51:33;;;;;;;3.03;2.83;;;21.70;56.30;;;21.34;52.74;97988.41;5060783;28;20462;-75
2022/07/04 00:54:01;;;;;;;3.00;2.80;;;21.80;56.40;;;21.17;53.15;97984.16;5058098;28;20452;-76
2022/07/04 00:56:28;;;;;;;3.77;2.70;;;21.80;56.40;;;21.06;53.35;97972.38;5059934;28;20498;-75
2022/07/04 00:58:55;;;;;;;3.00;2.80;;;21.60;56.40;;;20.62;55.30;97974.00;5079308;28;20485;-74
2022/07/04 01:01:24;;;;;;;3.00;2.80;;;21.30;57.20;;;20.43;55.52;97986.75;5073827;28;20810;-75
2022/07/04 01:03:52;;;;;;;3.13;2.93;;;21.10;57.30;;;20.37;55.64;97974.97;5064309;28;20452;-75
2022/07/04 01:06:20;;;;;;;3.17;2.87;;;21.00;57.50;;;20.26;56.07;97971.44;5062476;28;20458;-76
2022/07/04 01:08:49;;;;;;;3.27;2.97;;;20.90;57.80;;;20.20;56.48;97969.81;5055189;28;20470;-76
2022/07/04 01:11:17;;;;;;;3.20;2.90;;;20.90;58.10;;;20.31;56.00;97968.66;5058048;28;20484;-75
2022/07/04 01:13:44;;;;;;;3.63;3.33;;;20.90;58.00;;;20.19;56.32;97977.22;5055206;28;20453;-76
2022/07/04 01:16:13;;;;;;;2.70;2.60;;;20.90;58.00;;;20.05;57.27;97976.19;5062229;28;20474;-76
2022/07/04 01:18:41;;;;;;;3.13;2.83;;;20.80;58.40;;;19.96;57.71;97979.47;5065477;28;20467;-75
2022/07/04 01:21:10;;;;;;;2.93;2.73;;;20.70;58.90;;;19.89;57.92;97989.06;5068458;28;20511;-75
2022/07/04 01:23:40;;;;;;;3.10;2.90;;;20.60;59.10;;;19.63;58.65;97978.97;5062017;28;20516;-76
2022/07/04 01:26:07;;;;;;;3.10;2.70;;;20.40;59.30;;;19.33;59.18;97977.06;5054517;28;20453;-75
2022/07/04 01:28:35;;;;;;;3.80;2.83;;;20.10;59.60;;;19.17;59.94;97988.00;5057029;28;20487;-76
2022/07/04 01:31:03;;;;;;;3.30;3.00;;;19.90;60.20;;;19.15;60.41;97973.75;5054895;28;20477;-75
2022/07/04 01:33:31;;;;;;;2.93;2.73;;;19.80;60.70;;;19.17;60.17;97974.31;5051402;28;20472;-75
2022/07/04 01:35:58;;;;;;;3.37;2.97;;;19.90;61.00;;;19.07;60.81;97974.31;5056453;28;21208;-75
2022/07/04 01:38:27;;;;;;;3.20;2.80;;;19.80;61.40;;;19.04;61.41;97963.91;5062071;28;21057;-76
2022/07/04 01:40:54;;;;;;;3.90;3.03;;;19.70;62.30;;;19.37;60.35;97978.16;5061253;28;20464;-76
2022/07/04 01:43:22;;;;;;;3.83;3.43;;;20.00;62.20;;;19.48;59.71;97982.53;5051682;28;20460;-75
2022/07/04 01:45:49;;;;;;;2.90;2.70;;;20.10;61.80;;;19.71;59.47;97976.75;5050849;28;21062;-76
2022/07/04 01:48:17;;;;;;;3.37;3.03;;;20.30;61.90;;;20.00;58.74;97978.91;5055979;28;20462;-75
2022/07/04 01:50:44;;;;;;;3.33;3.13;;;20.60;61.50;;;20.15;57.89;97973.38;5068307;28;21035;-75
2022/07/04 01:53:11;;;;;;;3.13;2.93;;;20.80;61.00;;;20.23;57.45;97969.25;5058533;28;20562;-75
2022/07/04 01:55:40;;;;;;;3.20;2.80;;;20.90;60.90;;;20.09;58.15;97963.53;5056953;28;20545;-76
2022/07/04 01:58:08;;;;;;;2.97;2.73;;;20.80;61.00;;;20.19;57.59;97962.69;5054986;28;20458;-79
2022/07/04 02:03:20;;;;;;;6.00;3.03;;;20.70;60.70;;;19.39;59.91;97965.81;5051488;28;21036;-75
2022/07/04 02:05:47;;;;;;;3.40;3.10;;;20.30;61.40;;;19.33;60.38;97972.41;5048549;28;21003;-75
2022/07/04 02:08:15;;;;;;;3.60;3.30;;;20.10;62.10;;;19.13;59.38;97967.75;5050300;28;20460;-76
2022/07/04 02:10:44;;;;;;;3.87;3.43;;;19.90;61.20;;;18.92;60.28;97984.13;5056024;28;20481;-76
2022/07/04 02:13:11;;;;;;;3.07;2.87;;;19.80;61.50;;;18.82;61.24;97984.09;5059694;28;20539;-78
2022/07/04 02:15:41;;;;;;;4.10;3.60;;;19.60;62.30;;;18.89;60.46;97981.94;5046819;28;20458;-78
2022/07/04 02:18:11;;;;;;;4.23;2.97;;;19.60;62.10;;;18.37;61.02;97907.94;5053851;28;20457;-78
2022/07/04 02:20:39;;;;;;;4.03;3.73;;;19.60;62.80;;;18.76;61.12;97969.56;5075726;28;20560;-77
2022/07/04 02:23:07;;;;;;;4.10;3.77;;;19.60;62.80;;;18.60;61.45;97973.38;5068483;28;20531;-75
2022/07/04 02:25:34;;;;;;;3.40;3.10;;;19.50;63.00;;;18.59;61.79;97991.72;5078045;28;20474;-74
2022/07/04 02:28:03;;;;;;;3.80;3.50;;;19.30;63.20;;;18.54;61.94;97983.47;5064208;28;20446;-75
2022/07/04 02:30:31;;;;;;;4.00;3.60;;;19.30;63.40;;;18.35;62.34;97985.84;5057429;28;20498;-76
2022/07/04 02:32:58;;;;;;;3.23;2.93;;;19.20;63.80;;;18.31;62.58;97968.34;5050899;28;20477;-76
2022/07/04 02:35:25;;;;;;;3.27;3.07;;;19.20;64.20;;;18.34;62.60;97982.31;5060122;28;20459;-76
2022/07/04 02:37:52;;;;;;;4.20;3.80;;;19.10;64.20;;;18.32;63.15;97997.31;5054203;28;20817;-77
2022/07/04 02:40:19;;;;;;;3.80;2.80;;;19.10;64.80;;;18.21;63.49;98002.78;5060731;28;20465;-76
2022/07/04 02:42:47;;;;;;;4.43;3.63;;;19.10;65.00;;;18.09;63.59;98005.69;5060921;28;20532;-75
2022/07/04 02:45:15;;;;;;;7.07;3.33;;;19.00;65.30;;;18.17;63.53;98003.56;5069856;28;20454;-75
2022/07/04 02:47:42;;;;;;;3.90;3.60;;;18.90;65.80;;;18.17;62.94;98012.56;5057137;28;20545;-76
2022/07/04 02:50:10;;;;;;;4.27;3.87;;;18.90;65.40;;;18.05;63.75;98018.25;5056614;28;20468;-75
2022/07/04 02:52:37;;;;;;;4.23;3.90;;;18.80;66.00;;;18.10;63.60;98023.75;5058900;28;20460;-77
2022/07/04 02:55:06;;;;;;;3.30;3.10;;;18.80;66.00;;;18.00;63.60;98023.66;5060809;28;20514;-76
2022/07/04 02:57:37;;;;;;;4.23;3.93;;;18.70;66.20;;;17.80;64.15;98024.34;5063744;28;20963;-77
2022/07/04 03:00:05;;;;;;;4.23;3.67;;;18.60;66.40;;;17.83;64.39;98021.94;5065048;28;20457;-76
2022/07/04 03:02:34;;;;;;;3.47;3.27;;;18.60;66.90;;;17.90;64.44;98009.94;5061132;28;20454;-77
2022/07/04 03:05:01;;;;;;;7.30;3.67;;;18.60;67.70;;;17.78;64.67;98032.81;5057068;28;21148;-76
2022/07/04 03:07:29;;;;;;;3.80;3.50;;;18.60;67.60;;;17.84;64.61;98039.97;5074244;28;20449;-76
2022/07/04 03:09:56;;;;;;;4.30;4.00;;;18.50;67.90;;;17.73;65.19;98042.88;5060649;28;20464;-76
2022/07/04 03:12:23;;;;;;;3.63;3.30;;;18.50;68.50;;;17.64;65.43;98037.91;5065708;28;20466;-76
2022/07/04 03:14:53;;;;;;;3.83;3.03;;;18.40;69.00;;;17.82;65.72;98039.41;5063942;28;20552;-76
2022/07/04 03:17:20;;;;;;;4.20;3.90;;;18.40;70.10;;;17.79;65.62;98053.56;5058310;28;20477;-76
2022/07/04 03:19:49;;;;;;;3.87;3.57;;;18.50;69.90;;;17.66;66.19;98056.75;5061937;28;20599;-76
2022/07/04 03:22:16;;;;;;;3.53;3.23;;;18.40;70.50;;;17.63;66.26;98052.66;5057830;28;20457;-75
2022/07/04 03:24:43;;;;;;;3.37;3.13;;;18.40;70.60;;;17.69;65.59;98056.25;5061347;28;20445;-75
2022/07/04 03:27:11;;;;;;;3.47;3.00;;;18.50;70.10;;;17.79;65.41;98058.22;5068477;28;20456;-75
2022/07/04 03:29:38;;;;;;;4.20;3.40;;;18.60;70.30;;;17.76;65.04;98050.56;5061283;28;20476;-75
2022/07/04 03:32:07;;;;;;;4.00;3.70;;;18.60;70.10;;;17.84;65.29;98056.38;5070692;28;20484;-75
2022/07/04 03:34:34;;;;;;;2.90;2.70;;;18.60;70.40;;;17.73;64.87;98046.44;5068662;28;20844;-75
2022/07/04 03:37:04;;;;;;;3.40;3.10;;;18.60;69.80;;;17.81;64.81;98065.06;5062014;28;20456;-75
2022/07/04 03:39:31;;;;;;;3.30;3.00;;;18.60;69.80;;;17.74;64.28;98047.25;5062110;28;20456;-75
2022/07/04 03:41:58;;;;;;;3.67;3.30;;;18.70;69.50;;;17.73;64.22;98057.38;5062856;28;20479;-75
2022/07/04 03:44:26;;;;;;;3.00;2.80;;;18.60;69.10;;;17.75;64.25;98066.13;5054873;28;20489;-75
2022/07/04 03:46:54;;;;;;;5.67;3.13;;;18.60;69.20;;;17.79;63.76;98069.97;5062840;28;20463;-75
2022/07/04 03:49:21;;;;;;;2.87;2.60;;;18.60;68.80;;;17.60;64.03;98049.59;5060204;28;20479;-75
2022/07/04 03:51:49;;;;;;;2.57;2.37;;;18.60;68.70;;;17.78;63.41;98062.06;5060727;28;22604;-75
2022/07/04 03:54:17;;;;;;;2.40;2.20;;;18.60;68.70;;;17.72;63.32;98077.56;5053314;28;20456;-76
2022/07/04 03:56:45;;;;;;;3.10;2.80;;;18.60;68.40;;;17.73;63.58;98072.91;5058042;28;20493;-75
2022/07/04 03:59:12;;;;;;;3.60;2.93;;;18.60;68.50;;;17.43;63.52;98034.19;5064706;28;20464;-75
2022/07/04 04:01:41;;;;;;;2.80;2.60;;;18.50;68.20;;;17.48;63.39;98045.13;5059862;28;20453;-75
2022/07/04 04:06:53;;;;;;;2.60;2.40;;;18.60;68.30;;;17.80;62.99;98101.66;5066231;28;20814;-75
2022/07/04 04:09:24;;;;;;;3.37;2.70;;;18.60;68.10;;;18.00;62.39;98097.47;5056651;28;20560;-75
2022/07/04 04:11:51;;;;;;;2.57;2.37;;;18.80;68.00;;;17.79;62.46;98067.25;5053913;28;20465;-75
2022/07/04 04:14:19;;;;;;;3.00;2.60;;;18.80;68.00;;;17.90;62.54;98097.38;5052933;28;20506;-75
2022/07/04 04:16:46;;;;;;;2.80;2.60;;;18.80;67.60;;;17.83;62.79;98100.34;5067098;28;21026;-75
2022/07/04 04:19:16;;;;;;;3.03;2.70;;;18.70;67.90;;;17.91;62.62;98101.75;5057384;28;20453;-75
2022/07/04 04:21:44;;;;;;;2.70;2.50;;;18.70;67.80;;;17.78;62.92;98098.38;5055896;28;20453;-75
2022/07/04 04:24:11;;;;;;;3.97;2.80;;;18.70;67.90;;;17.61;62.54;98082.13;5055479;28;20548;-75
2022/07/04 04:26:40;;;;;;;2.90;2.70;;;18.60;67.70;;;17.83;62.68;98112.09;5058051;28;20465;-75
2022/07/04 04:29:07;;;;;;;2.73;2.53;;;18.70;67.80;;;17.84;62.55;98113.75;5061267;28;20436;-75
2022/07/04 04:31:34;;;;;;;3.80;2.63;;;18.60;67.60;;;17.81;62.71;98113.44;5057337;28;20527;-74
2022/07/04 04:34:02;;;;;;;3.50;3.00;;;18.70;67.70;;;17.96;62.34;98112.72;5058147;28;20465;-76
2022/07/04 04:36:29;;;;;;;2.77;2.10;;;18.70;67.70;;;17.85;61.93;98114.56;5059391;28;20464;-75
2022/07/04 04:38:57;;;;;;;2.73;2.53;;;18.80;67.20;;;17.57;62.54;98078.25;5075572;28;20492;-74
2022/07/04 04:41:24;;;;;;;4.57;2.90;;;18.70;67.50;;;17.87;62.58;98122.50;5061457;28;20459;-75
2022/07/04 04:43:53;;;;;;;3.10;2.63;;;18.70;67.50;;;17.98;62.05;98125.06;5055593;28;20449;-75
2022/07/04 04:46:21;;;;;;;2.83;2.47;;;18.80;67.50;;;17.86;62.29;98131.78;5056459;28;20443;-75
2022/07/04 04:48:48;;;;;;;4.33;2.50;;;18.70;67.20;;;17.86;62.16;98131.78;5060138;28;20964;-74
2022/07/04 04:51:16;;;;;;;3.00;2.80;;;18.70;67.30;;;17.83;62.35;98136.69;5056903;28;20472;-74
2022/07/04 04:53:43;;;;;;;3.30;3.00;;;18.70;67.30;;;17.88;62.35;98143.28;5056648;28;20480;-72
2022/07/04 04:56:11;;;;;;;4.03;3.07;;;18.70;67.40;;;17.92;61.95;98137.03;5058713;28;20450;-75
2022/07/04 04:58:39;;;;;;;6.50;2.97;;;18.70;67.80;;;18.08;62.05;98139.94;5055879;28;20469;-75
2022/07/04 05:01:10;;;;;;;3.07;2.87;;;18.80;67.50;;;18.04;61.70;98144.25;5059042;28;20476;-76
2022/07/04 05:03:38;;;;;;;3.60;2.70;;;18.80;67.00;;;18.08;61.05;98139.94;5053086;28;20457;-82
2022/07/04 05:06:06;;;;;;;2.87;2.63;;;18.90;66.40;;;18.08;61.30;98146.19;5053323;28;20453;-75
2022/07/04 05:08:34;;;;;;;6.07;2.77;;;18.90;66.60;;;18.09;61.13;98139.66;5056701;28;20498;-79
2022/07/04 05:11:02;;;;;;;4.33;2.77;;;19.00;66.50;;;17.86;61.61;98131.78;5065586;28;20869;-79
2022/07/04 05:13:31;;;;;;;3.00;2.77;;;18.90;66.70;;;18.02;61.70;98157.31;5062588;28;20544;-75
2022/07/04 05:15:59;;;;;;;5.00;2.97;;;18.90;66.80;;;18.10;61.04;98126.81;5062132;28;20517;-76
2022/07/04 05:18:28;;;;;;;4.67;3.00;;;18.90;66.70;;;18.14;60.99;98129.84;5057789;28;20472;-77
2022/07/04 05:20:56;;;;;;;2.90;2.70;;;19.00;66.40;;;18.38;60.34;98155.72;5066380;28;20443;-74
2022/07/04 05:23:23;;;;;;;2.83;2.63;;;19.20;66.40;;;18.66;60.32;98156.44;5060813;28;20472;-73
2022/07/04 05:25:51;;;;;;;3.10;2.80;;;19.40;66.10;;;18.72;59.80;98164.66;5063261;28;20463;-75
2022/07/04 05:28:18;;;;;;;3.17;2.90;;;19.40;65.90;;;18.30;59.91;98126.13;5065726;28;20513;-76
2022/07/04 05:30:46;;;;;;;3.73;3.23;;;19.40;65.60;;;18.63;60.16;98162.44;5062124;28;20460;-75
2022/07/04 05:33:13;;;;;;;4.20;3.47;;;19.40;66.00;;;18.75;59.61;98148.53;5052304;28;20457;-85
2022/07/04 05:35:45;;;;;;;6.00;2.90;;;19.50;65.90;;;18.92;59.29;98153.00;5059969;28;20453;-84
2022/07/04 05:38:12;;;;;;;3.60;2.80;;;19.60;65.70;;;19.08;58.74;98145.72;5054303;28;20460;-83
2022/07/04 05:40:39;;;;;;;3.37;2.50;;;19.80;65.30;;;19.38;57.32;98153.19;5069750;28;20464;-81
2022/07/04 05:43:06;;;;;;;10.00;2.93;;;20.00;64.60;;;19.46;57.36;98157.31;5065848;28;20443;-83
2022/07/04 05:45:34;;;;;;;2.90;2.70;;;20.20;64.20;;;19.65;56.17;98163.13;5067564;28;20482;-82
2022/07/04 05:48:01;;;;;;;3.80;3.50;;;20.40;63.50;;;19.59;56.79;98166.13;5066389;28;20474;-80
2022/07/04 05:50:28;;;;;;;4.70;3.40;;;20.40;63.40;;;19.82;55.96;98168.34;5072254;28;20443;-79
2022/07/04 05:52:57;;;;;;;3.40;2.80;;;20.60;63.20;;;19.60;56.21;98167.75;5074571;28;20482;-77
2022/07/04 05:55:24;;;;;;;2.83;2.63;;;20.60;62.60;;;19.90;55.82;98174.38;5061519;28;20454;-83
2022/07/04 05:57:53;;;;;;;2.73;2.50;;;20.70;62.70;;;20.01;55.37;98165.09;5068927;28;20471;-75
2022/07/04 06:00:20;;;;;;;3.40;3.20;;;20.80;62.50;;;19.68;56.24;98167.25;5058851;28;20584;-86
2022/07/04 06:02:48;;;;;;;3.27;2.97;;;20.70;62.20;;;19.75;56.11;98166.97;5057072;28;20466;-87
2022/07/04 06:05:15;;;;;;;3.40;3.10;;;20.60;62.50;;;19.98;55.77;98173.88;5056902;28;20476;-85
2022/07/04 06:07:43;;;;;;;3.10;2.80;;;20.70;62.50;;;20.42;54.59;98177.16;5062920;28;20454;-86
2022/07/04 06:10:12;;;;;;;2.87;2.63;;;21.10;62.10;;;21.67;51.78;98172.06;5066523;28;20514;-89
2022/07/04 06:12:39;;;;;;;3.20;2.97;;;22.30;61.10;;;21.86;50.09;98125.47;5072431;28;21004;-82
2022/07/04 06:15:09;;;;;;;2.80;2.60;;;23.10;59.20;;;22.79;47.71;98168.63;5056807;28;20463;-79
2022/07/04 06:17:37;;;;;;;3.73;3.17;;;23.60;57.90;;;22.34;48.29;98168.78;5056917;28;20458;-80
2022/07/04 06:20:06;;;;;;;4.33;2.67;;;23.40;57.10;;;22.49;48.27;98167.84;5056156;28;20457;-82
2022/07/04 06:22:42;;;;;;;2.93;2.63;;;23.60;57.00;;;23.29;46.58;98170.28;5057134;28;20472;-84
2022/07/04 06:25:14;;;;;;;5.27;2.50;;;24.10;56.50;;;23.32;47.21;98172.44;5057653;28;20457;-81
2022/07/04 06:27:42;;;;;;;2.80;2.60;;;24.40;56.60;;;23.05;46.44;98160.09;5061000;28;20532;-79
2022/07/04 06:30:10;;;;;;;3.30;3.00;;;24.30;55.50;;;22.02;49.55;98170.16;5073531;28;20465;-78
2022/07/04 06:32:46;;;;;;;3.17;2.87;;;23.70;55.80;;;21.35;51.28;98172.19;5088636;28;20536;-84
2022/07/04 06:37:59;;;;;;;3.10;2.80;;;22.40;57.50;;;20.71;53.52;98162.84;5081660;28;20461;-82
2022/07/04 06:40:27;;;;;;;4.67;3.40;;;22.00;58.50;;;20.78;52.61;98147.72;5060777;28;20497;-84
2022/07/04 06:42:55;;;;;;;3.17;2.90;;;21.90;58.80;;;20.94;53.21;98164.97;5069606;28;20855;-83
2022/07/04 06:45:22;;;;;;;5.03;3.33;;;21.80;58.90;;;21.08;53.13;98172.59;5062901;28;22759;-82
2022/07/04 06:47:50;;;;;;;4.53;2.87;;;21.90;59.30;;;21.17;52.26;98161.84;5057929;28;20477;-81
2022/07/04 06:50:18;;;;;;;6.03;3.20;;;21.90;58.80;;;21.10;52.40;98162.16;5061048;28;20487;-81
2022/07/04 06:52:46;;;;;;;3.70;3.37;;;21.90;58.80;;;21.00;52.97;98164.94;5054957;28;20461;-83
2022/07/04 06:55:13;;;;;;;3.53;3.20;;;21.90;59.00;;;20.94;52.81;98173.19;5055615;28;20461;-79
2022/07/04 06:57:42;;;;;;;5.23;3.97;;;21.90;58.80;;;20.72;53.72;98175.44;5063667;28;21431;-80
2022/07/04 07:00:11;;;;;;;4.27;3.00;;;21.50;59.30;;;20.71;53.48;98162.84;5060170;28;20908;-82
2022/07/04 07:02:39;;;;;;;4.20;3.33;;;21.60;59.40;;;21.03;52.77;98165.22;5056192;28;20546;-76
2022/07/04 07:05:07;;;;;;;6.87;3.50;;;21.80;59.40;;;21.00;53.65;98164.94;5057837;28;20465;-78
2022/07/04 07:07:35;;;;;;;3.93;3.63;;;21.90;59.70;;;21.31;51.96;98164.84;5053646;28;20445;-79
2022/07/04 07:10:02;;;;;;;3.87;3.57;;;22.10;58.80;;;21.66;51.33;98165.75;5065821;28;20475;-77
2022/07/04 07:12:31;;;;;;;3.67;3.37;;;22.30;58.80;;;21.89;50.73;98157.88;5066001;28;20482;-80
2022/07/04 07:15:00;;;;;;;3.30;3.00;;;22.60;58.30;;;21.99;50.50;98163.31;5061707;28;20471;-81
2022/07/04 07:17:27;;;;;;;3.83;3.40;;;22.70;58.20;;;22.78;48.77;98159.56;5074202;28;20470;-80
2022/07/04 07:19:55;;;;;;;3.30;3.10;;;23.30;58.00;;;23.03;47.68;98168.63;5065120;28;20860;-81
2022/07/04 07:22:23;;;;;;;4.03;3.30;;;23.70;57.10;;;22.91;48.18;98165.50;5068610;28;20459;-82
2022/07/04 07:24:50;;;;;;;3.63;3.20;;;23.70;57.00;;;22.85;48.09;98175.75;5052529;28;20463;-75
2022/07/04 07:27:17;;;;;;;6.50;3.67;;;23.60;56.80;;;22.74;48.01;98132.91;5052943;28;20480;-76
2022/07/04 07:29:45;;;;;;;3.67;3.33;;;23.80;57.00;;;22.74;47.50;98172.25;5050355;28;20466;-81
2022/07/04 07:32:15;;;;;;;4.53;4.03;;;23.60;56.00;;;22.76;47.81;98170.06;5052540;28;20524;-81
2022/07/04 07:34:42;;;;;;;5.10;3.40;;;23.40;56.30;;;22.66;48.65;98172.09;5060227;28;20462;-79
2022/07/04 07:37:09;;;;;;;3.83;3.43;;;23.40;56.60;;;22.99;47.51;98170.34;5080613;28;20424;-74
2022/07/04 07:39:37;;;;;;;4.00;3.63;;;23.60;56.30;;;22.96;47.03;98165.44;5084801;28;20454;-77
2022/07/04 07:42:04;;;;;;;4.07;3.77;;;23.70;55.90;;;23.13;46.79;98169.63;5068506;28;20974;-77
2022/07/04 07:44:32;;;;;;;3.80;3.40;;;23.80;55.80;;;23.36;46.23;98175.44;5072514;28;20520;-81
2022/07/04 07:47:00;;;;;;;3.13;2.90;;;23.90;55.60;;;23.44;46.67;98172.84;5055829;28;20470;-82
2022/07/04 07:49:29;;;;;;;5.10;3.57;;;24.00;55.80;;;23.66;45.69;98174.19;5059978;28;20852;-79
2022/07/04 07:51:56;;;;;;;4.00;3.47;;;24.30;55.40;;;23.24;45.91;98170.31;5061641;28;20467;-82
2022/07/04 07:54:24;;;;;;;3.37;3.17;;;24.00;54.90;;;23.09;46.21;98143.78;5057205;28;20595;-81
2022/07/04 07:56:52;;;;;;;7.13;3.50;;;23.90;55.10;;;23.34;45.97;98172.97;5052724;28;20465;-80
2022/07/04 07:59:19;;;;;;;4.00;3.67;;;24.00;55.20;;;22.78;46.33;98117.44;5061478;28;20460;-82
2022/07/04 08:01:47;;;;;;;4.60;3.60;;;24.00;55.10;;;23.12;46.43;98171.53;5067090;28;21085;-79
2022/07/04 08:07:01;;;;;;;3.33;3.13;;;23.80;55.20;;;23.16;46.87;98177.31;5051499;28;20553;-83
2022/07/04 08:09:28;;;;;;;7.00;3.60;;;23.80;55.40;;;23.48;46.22;98167.53;5054180;28;20487;-81
2022/07/04 08:11:56;;;;;;;3.43;3.13;;;24.00;55.30;;;23.90;45.48;98174.09;5060157;28;20587;-83
2022/07/04 08:14:23;;;;;;;4.20;3.50;;;24.40;55.40;;;24.09;44.32;98172.47;5054496;28;20930;-81
2022/07/04 08:16:51;;;;;;;4.03;3.73;;;24.60;54.40;;;23.98;44.62;98167.06;5059535;28;20459;-82
2022/07/04 08:19:18;;;;;;;6.10;4.00;;;24.50;54.40;;;23.27;45.11;98112.72;5058998;28;20461;-80
2022/07/04 08:21:47;;;;;;;4.13;3.60;;;24.30;54.00;;;23.35;45.27;98122.25;5052432;28;20494;-80
2022/07/04 08:24:17;;;;;;;3.83;3.37;;;24.30;54.30;;;24.09;44.21;98167.75;5055630;28;20469;-82
2022/07/04 08:26:45;;;;;;;4.27;3.80;;;24.60;54.20;;;24.15;44.50;98160.22;5059831;28;20452;-83
2022/07/04 08:29:13;;;;;;;4.40;3.90;;;24.80;54.20;;;24.03;44.54;98167.00;5055479;28;21022;-83
2022/07/04 08:31:40;;;;;;;5.47;3.73;;;24.70;54.20;;;24.38;44.54;98155.66;5051409;28;20452;-81
2022/07/04 08:34:07;;;;;;;4.37;3.97;;;24.80;54.40;;;24.55;43.17;98157.84;5049159;28;20437;-83
2022/07/04 08:36:35;;;;;;;3.80;3.30;;;25.10;53.70;;;24.90;42.02;98149.22;5055075;28;20467;-82
2022/07/04 08:39:02;;;;;;;3.40;3.20;;;25.40;53.10;;;24.77;42.81;98161.09;5062008;28;20459;-81
2022/07/04 08:41:37;;;;;;;6.50;4.40;;;25.30;53.20;;;24.50;43.22;98159.88;5056363;28;20780;-82
2022/07/04 08:44:08;;;;;;;3.87;3.60;;;25.30;53.40;;;25.10;42.20;98156.28;5068120;28;20456;-80
2022/07/04 08:46:39;;;;;;;4.37;3.97;;;25.50;53.40;;;24.83;42.66;98149.63;5076890;28;20510;-83
2022/07/04 08:49:16;;;;;;;4.10;3.80;;;25.50;53.00;;;25.25;42.39;98160.66;5058583;28;20461;-82
2022/07/04 08:51:54;;;;;;;4.73;3.80;;;25.80;53.10;;;25.18;42.78;98150.00;5065562;28;21470;-82
2022/07/04 09:00:14;;;;;;;3.87;3.53;;;25.60;53.30;;;25.53;42.37;98143.22;4978601;28;20533;-83
2022/07/04 09:02:41;;;;;;;3.80;3.50;;;25.90;53.40;;;25.38;40.93;98141.59;4977489;28;20576;-82
2022/07/04 09:05:10;;;;;;;3.73;3.37;;;25.90;52.00;;;25.29;41.12;98130.44;5023278;28;20460;-81
2022/07/04 09:07:38;;;;;;;4.67;3.77;;;25.90;52.00;;;25.17;41.86;98142.84;5072195;28;20535;-84
2022/07/04 09:10:06;;;;;;;3.87;3.47;;;25.70;52.30;;;24.52;43.17;98113.47;5058822;28;20551;-81
2022/07/04 09:12:37;;;;;;;3.33;3.13;;;25.60;52.70;;;24.97;41.96;98132.22;5055959;28;20504;-81
2022/07/04 09:15:06;;;;;;;4.33;3.67;;;25.60;52.20;;;24.77;42.13;98117.69;5053274;28;20461;-81
2022/07/04 09:17:34;;;;;;;4.80;3.07;;;25.60;52.20;;;25.11;41.55;98112.88;5056186;28;20467;-82
2022/07/04 09:20:14;;;;;;;5.90;3.27;;;25.60;52.40;;;25.48;41.61;98144.16;5065901;28;20463;-81
2022/07/04 09:22:41;;;;;;;4.10;3.70;;;26.10;52.20;;;25.85;40.97;98139.41;5063221;28;21266;-79
2022/07/04 09:25:12;;;;;;;3.73;3.47;;;26.30;52.20;;;25.93;40.91;98143.38;5062491;28;20456;-80
2022/07/04 09:27:44;;;;;;;3.43;3.20;;;26.50;52.00;;;26.27;40.29;98138.44;5049793;28;20475;-80
2022/07/04 09:30:14;;;;;;;3.63;3.33;;;26.60;51.80;;;26.02;40.17;98155.34;5060477;28;20460;-82
2022/07/04 09:32:43;;;;;;;3.57;3.37;;;26.70;51.50;;;25.80;40.16;98156.16;5052754;28;20505;-79
2022/07/04 09:35:13;;;;;;;4.87;3.10;;;26.40;51.20;;;26.09;40.22;98165.97;5053743;28;20454;-82
2022/07/04 09:37:45;;;;;;;3.30;3.00;;;26.50;51.60;;;26.20;39.89;98133.34;5054382;28;20727;-83
2022/07/04 09:40:23;;;;;;;4.37;2.80;;;26.70;51.40;;;26.69;39.78;98158.38;5059211;28;20460;-80
2022/07/04 09:42:53;;;;;;;3.50;3.30;;;27.00;51.60;;;26.14;40.09;98151.16;5052712;28;20460;-82
2022/07/04 09:45:24;;;;;;;3.20;3.00;;;26.90;51.10;;;25.55;41.81;98154.78;5052164;28;20465;-82
2022/07/04 09:47:54;;;;;;;3.83;3.20;;;26.50;51.80;;;26.15;40.60;98161.09;5050414;28;20463;-81
2022/07/04 09:50:24;;;;;;;3.73;3.00;;;26.70;51.90;;;26.34;39.38;98149.06;5053074;28;20445;-82
2022/07/04 09:52:54;;;;;;;4.73;2.90;;;26.70;50.90;;;26.04;39.58;98157.78;5058329;28;20497;-80
2022/07/04 09:55:25;;;;;;;4.03;3.00;;;26.70;50.80;;;25.27;41.34;98154.81;5052836;28;20464;-81
2022/07/04 09:57:56;;;;;;;3.57;3.37;;;26.10;51.30;;;25.60;41.07;98162.97;5054562;28;21018;-82
2022/07/04 10:00:26;;;;;;;3.60;3.30;;;26.10;51.80;;;25.29;41.40;98142.31;5060693;28;20465;-80
2022/07/04 10:02:55;;;;;;;3.60;3.30;;;26.10;51.50;;;25.50;41.71;98174.25;5079360;28;20872;-80
2022/07/04 10:05:25;;;;;;;3.80;3.60;;;26.00;51.90;;;25.10;42.44;98170.09;5074275;28;20509;-80
2022/07/04 10:07:55;;;;;;;3.90;3.53;;;25.90;51.90;;;25.00;42.46;98173.88;5081479;28;20449;-79
2022/07/04 10:10:31;;;;;;;2.90;2.80;;;25.60;52.10;;;25.41;41.24;98186.03;5073833;28;20492;-79
2022/07/04 10:13:02;;;;;;;3.70;3.40;;;25.80;51.80;;;25.64;40.26;98166.75;5057533;28;20553;-81
2022/07/04 10:15:30;;;;;;;3.40;3.03;;;26.20;51.00;;;26.09;39.95;98157.66;5063449;28;20465;-80
2022/07/04 10:17:57;;;;;;;3.73;3.43;;;26.40;51.40;;;26.05;40.23;98164.94;5054231;28;20467;-81
2022/07/04 10:20:25;;;;;;;3.57;3.10;;;26.50;51.30;;;26.55;39.56;98168.72;5057983;28;20457;-81
2022/07/04 10:22:52;;;;;;;3.50;2.80;;;27.00;51.00;;;26.34;39.77;98154.59;5051874;28;20456;-80
2022/07/04 10:25:20;;;;;;;6.03;3.40;;;26.80;51.00;;;26.53;39.38;98157.13;5064619;28;20464;-81
2022/07/04 10:27:50;;;;;;;3.63;2.70;;;27.10;51.00;;;26.07;39.75;98161.88;5055226;28;20506;-81
2022/07/04 10:30:25;;;;;;;3.30;3.00;;;26.90;50.50;;;25.62;40.37;98177.31;5058537;28;20585;-81
2022/07/04 10:32:58;;;;;;;3.77;2.90;;;26.20;50.80;;;25.21;40.95;98169.88;5061537;28;20532;-80
2022/07/04 10:35:49;;;;;;;4.43;2.93;;;25.80;50.80;;;25.33;41.06;98123.16;5061473;28;20453;-83
2022/07/04 10:38:18;;;;;;;3.73;2.87;;;26.10;51.30;;;25.91;39.77;98170.56;5058818;28;20464;-82
2022/07/04 10:40:49;;;;;;;3.93;3.20;;;26.50;50.80;;;25.84;39.24;98170.16;5070920;28;20453;-80
2022/07/04 10:44:03;;;;;;;3.97;2.50;;;26.40;50.00;;;25.48;40.01;98170.97;5045244;28;20459;-80